sensor_id;sensor_type;location;lat;lon;timestamp;pressure;altitude;pressure_sealevel;temperature;humidity
14885;BME280;7534;50.762;7.000;2023-10-31T00:02:24;87981.38;;;-143.16;77.50
14885;BME280;7534;50.762;7.000;2023-10-31T00:04:50;87949.06;;;-143.16;75.65
14885;BME280;7534;50.762;7.000;2023-10-31T00:07:28;87993.47;;;-143.16;76.80
14885;BME280;7534;50.762;7.000;2023-10-31T00:09:55;87977.31;;;-143.16;75.74
14885;BME280;7534;50.762;7.000;2023-10-31T00:12:21;87961.19;;;-143.16;74.98
14885;BME280;7534;50.762;7.000;2023-10-31T00:14:48;87938.97;;;-143.16;75.45
14885;BME280;7534;50.762;7.000;2023-10-31T00:17:14;87947.06;;;-143.16;75.65
14885;BME280;7534;50.762;7.000;2023-10-31T00:19:41;87969.25;;;-143.16;75.03
14885;BME280;7534;50.762;7.000;2023-10-31T00:22:07;87936.97;;;-143.16;74.93
14885;BME280;7534;50.762;7.000;2023-10-31T00:24:33;87947.06;;;-143.16;74.77
14885;BME280;7534;50.762;7.000;2023-10-31T00:26:59;87977.31;;;-143.16;74.22
14885;BME280;7534;50.762;7.000;2023-10-31T00:29:25;88031.84;;;-143.16;74.65
14885;BME280;7534;50.762;7.000;2023-10-31T00:31:51;88007.59;;;-143.16;74.55
14885;BME280;7534;50.762;7.000;2023-10-31T00:34:17;88037.88;;;-143.16;75.66
14885;BME280;7534;50.762;7.000;2023-10-31T00:36:43;88019.72;;;-143.16;75.82
14885;BME280;7534;50.762;7.000;2023-10-31T00:39:09;88054.03;;;-143.16;76.12
14885;BME280;7534;50.762;7.000;2023-10-31T00:41:35;88041.94;;;-143.16;74.96
14885;BME280;7534;50.762;7.000;2023-10-31T00:44:01;88058.06;;;-143.16;74.96
14885;BME280;7534;50.762;7.000;2023-10-31T00:46:39;88080.28;;;-143.16;75.05
14885;BME280;7534;50.762;7.000;2023-10-31T00:49:06;88062.13;;;-143.16;74.70
14885;BME280;7534;50.762;7.000;2023-10-31T00:51:33;88056.06;;;-143.16;74.77
14885;BME280;7534;50.762;7.000;2023-10-31T00:53:59;88088.34;;;-143.16;75.31
14885;BME280;7534;50.762;7.000;2023-10-31T00:56:25;88072.19;;;-143.16;76.38
14885;BME280;7534;50.762;7.000;2023-10-31T00:58:57;88072.19;;;-143.16;75.89
14885;BME280;7534;50.762;7.000;2023-10-31T01:01:25;88064.13;;;-143.16;75.92
14885;BME280;7534;50.762;7.000;2023-10-31T01:03:52;88094.41;;;-143.16;76.77
14885;BME280;7534;50.762;7.000;2023-10-31T01:06:18;88084.31;;;-143.16;76.53
14885;BME280;7534;50.762;7.000;2023-10-31T01:08:44;88126.72;;;-143.16;77.32
14885;BME280;7534;50.762;7.000;2023-10-31T01:11:13;88120.66;;;-143.16;76.72
14885;BME280;7534;50.762;7.000;2023-10-31T01:13:42;88104.50;;;-143.16;77.03
14885;BME280;7534;50.762;7.000;2023-10-31T01:16:08;88076.25;;;-143.16;76.98
14885;BME280;7534;50.762;7.000;2023-10-31T01:18:34;88116.63;;;-143.16;77.18
14885;BME280;7534;50.762;7.000;2023-10-31T01:21:06;88146.88;;;-143.16;77.30
14885;BME280;7534;50.762;7.000;2023-10-31T01:23:34;88161.03;;;-143.16;77.21
14885;BME280;7534;50.762;7.000;2023-10-31T01:26:02;88144.88;;;-143.16;77.30
14885;BME280;7534;50.762;7.000;2023-10-31T01:28:28;88124.69;;;-143.16;77.72
14885;BME280;7534;50.762;7.000;2023-10-31T01:30:54;88128.72;;;-143.16;77.61
14885;BME280;7534;50.762;7.000;2023-10-31T01:33:20;88183.22;;;-143.16;77.72
14885;BME280;7534;50.762;7.000;2023-10-31T01:35:46;88207.44;;;-143.16;77.85
14885;BME280;7534;50.762;7.000;2023-10-31T01:38:12;88159.00;;;-143.16;77.63
14885;BME280;7534;50.762;7.000;2023-10-31T01:40:38;88159.00;;;-143.16;77.79
14885;BME280;7534;50.762;7.000;2023-10-31T01:43:19;88140.84;;;-143.16;78.41
14885;BME280;7534;50.762;7.000;2023-10-31T01:45:54;88189.28;;;-143.16;78.17
14885;BME280;7534;50.762;7.000;2023-10-31T01:51:43;88161.03;;;-143.16;78.76
14885;BME280;7534;50.762;7.000;2023-10-31T01:54:11;88159.00;;;-143.16;78.94
14885;BME280;7534;50.762;7.000;2023-10-31T01:56:38;88239.75;;;-143.16;78.70
14885;BME280;7534;50.762;7.000;2023-10-31T01:59:05;88219.56;;;-143.16;78.36
14885;BME280;7534;50.762;7.000;2023-10-31T02:01:34;88191.31;;;-143.16;78.59
14885;BME280;7534;50.762;7.000;2023-10-31T02:04:01;88229.66;;;-143.16;78.82
14885;BME280;7534;50.762;7.000;2023-10-31T02:06:28;88211.50;;;-143.16;79.19
14885;BME280;7534;50.762;7.000;2023-10-31T02:08:57;88235.72;;;-143.16;80.50
14885;BME280;7534;50.762;7.000;2023-10-31T02:11:23;88266.00;;;-143.16;81.58
14885;BME280;7534;50.762;7.000;2023-10-31T02:13:49;88292.22;;;-143.16;81.97
14885;BME280;7534;50.762;7.000;2023-10-31T02:16:15;88298.28;;;-143.16;82.15
14885;BME280;7534;50.762;7.000;2023-10-31T02:18:42;88239.75;;;-143.16;82.50
14885;BME280;7534;50.762;7.000;2023-10-31T02:21:08;88247.81;;;-143.16;82.81
14885;BME280;7534;50.762;7.000;2023-10-31T02:23:34;88280.13;;;-143.16;82.29
14885;BME280;7534;50.762;7.000;2023-10-31T02:26:00;88280.13;;;-143.16;82.42
14885;BME280;7534;50.762;7.000;2023-10-31T02:28:26;88286.19;;;-143.16;82.21
14885;BME280;7534;50.762;7.000;2023-10-31T02:30:54;88290.22;;;-143.16;81.78
14885;BME280;7534;50.762;7.000;2023-10-31T02:33:23;88274.06;;;-143.16;82.33
14885;BME280;7534;50.762;7.000;2023-10-31T02:35:49;88346.75;;;-143.16;82.25
14885;BME280;7534;50.762;7.000;2023-10-31T02:38:15;88310.41;;;-143.16;82.74
14885;BME280;7534;50.762;7.000;2023-10-31T02:40:41;88314.44;;;-143.16;83.64
14885;BME280;7534;50.762;7.000;2023-10-31T02:43:07;88316.47;;;-143.16;84.55
14885;BME280;7534;50.762;7.000;2023-10-31T02:45:33;88377.03;;;-143.16;84.54
14885;BME280;7534;50.762;7.000;2023-10-31T02:47:59;88302.34;;;-143.16;84.18
14885;BME280;7534;50.762;7.000;2023-10-31T02:50:25;88407.31;;;-143.16;84.75
14885;BME280;7534;50.762;7.000;2023-10-31T02:52:51;88360.88;;;-143.16;85.28
14885;BME280;7534;50.762;7.000;2023-10-31T02:55:17;88387.13;;;-143.16;85.25
14885;BME280;7534;50.762;7.000;2023-10-31T02:57:43;88354.81;;;-143.16;85.58
14885;BME280;7534;50.762;7.000;2023-10-31T03:00:10;88373.00;;;-143.16;84.50
14885;BME280;7534;50.762;7.000;2023-10-31T03:02:36;88399.22;;;-143.16;84.43
14885;BME280;7534;50.762;7.000;2023-10-31T03:05:02;88324.53;;;-143.16;84.07
14885;BME280;7534;50.762;7.000;2023-10-31T03:07:28;88340.69;;;-143.16;84.89
14885;BME280;7534;50.762;7.000;2023-10-31T03:09:54;88403.28;;;-143.16;86.12
14885;BME280;7534;50.762;7.000;2023-10-31T03:12:21;88358.84;;;-143.16;86.70
14885;BME280;7534;50.762;7.000;2023-10-31T03:14:47;88322.53;;;-143.16;86.36
14885;BME280;7534;50.762;7.000;2023-10-31T03:17:13;88348.75;;;-143.16;85.82
14885;BME280;7534;50.762;7.000;2023-10-31T03:19:39;88298.28;;;-143.16;85.56
14885;BME280;7534;50.762;7.000;2023-10-31T03:22:05;88261.97;;;-143.16;84.26
14885;BME280;7534;50.762;7.000;2023-10-31T03:24:32;88344.72;;;-143.16;84.75
14885;BME280;7534;50.762;7.000;2023-10-31T03:26:58;88290.22;;;-143.16;84.07
14885;BME280;7534;50.762;7.000;2023-10-31T03:29:24;88326.56;;;-143.16;84.56
14885;BME280;7534;50.762;7.000;2023-10-31T03:31:50;88274.06;;;-143.16;84.74
14885;BME280;7534;50.762;7.000;2023-10-31T03:34:16;88280.13;;;-143.16;84.54
14885;BME280;7534;50.762;7.000;2023-10-31T03:36:42;88239.75;;;-143.16;83.61
14885;BME280;7534;50.762;7.000;2023-10-31T03:39:08;88261.97;;;-143.16;83.02
14885;BME280;7534;50.762;7.000;2023-10-31T03:41:35;88207.44;;;-143.16;82.95
14885;BME280;7534;50.762;7.000;2023-10-31T03:44:01;88286.19;;;-143.16;82.33
14885;BME280;7534;50.762;7.000;2023-10-31T03:46:27;88213.50;;;-143.16;82.24
14885;BME280;7534;50.762;7.000;2023-10-31T03:48:53;88217.53;;;-143.16;81.03
14885;BME280;7534;50.762;7.000;2023-10-31T03:51:19;88274.06;;;-143.16;81.34
14885;BME280;7534;50.762;7.000;2023-10-31T03:53:45;88237.72;;;-143.16;80.71
14885;BME280;7534;50.762;7.000;2023-10-31T03:56:11;88177.16;;;-143.16;80.74
14885;BME280;7534;50.762;7.000;2023-10-31T03:58:37;88185.25;;;-143.16;80.36
14885;BME280;7534;50.762;7.000;2023-10-31T04:01:03;88223.59;;;-143.16;80.75
14885;BME280;7534;50.762;7.000;2023-10-31T04:03:29;88243.78;;;-143.16;79.73
14885;BME280;7534;50.762;7.000;2023-10-31T04:05:55;88189.28;;;-143.16;79.94
14885;BME280;7534;50.762;7.000;2023-10-31T04:08:21;88169.09;;;-143.16;79.39
14885;BME280;7534;50.762;7.000;2023-10-31T04:10:47;88175.16;;;-143.16;79.28
14885;BME280;7534;50.762;7.000;2023-10-31T04:13:13;88217.53;;;-143.16;78.70
14885;BME280;7534;50.762;7.000;2023-10-31T04:15:39;88110.56;;;-143.16;78.39
14885;BME280;7534;50.762;7.000;2023-10-31T04:18:05;88126.72;;;-143.16;78.12
14885;BME280;7534;50.762;7.000;2023-10-31T04:20:32;88157.00;;;-143.16;77.85
14885;BME280;7534;50.762;7.000;2023-10-31T04:22:58;88136.78;;;-143.16;77.48
14885;BME280;7534;50.762;7.000;2023-10-31T04:25:24;88179.19;;;-143.16;77.17
14885;BME280;7534;50.762;7.000;2023-10-31T04:27:50;88120.66;;;-143.16;76.79
14885;BME280;7534;50.762;7.000;2023-10-31T04:30:16;88124.69;;;-143.16;76.68
14885;BME280;7534;50.762;7.000;2023-10-31T04:32:42;88132.75;;;-143.16;77.09
14885;BME280;7534;50.762;7.000;2023-10-31T04:35:08;88150.94;;;-143.16;76.85
14885;BME280;7534;50.762;7.000;2023-10-31T04:37:34;88120.66;;;-143.16;76.32
14885;BME280;7534;50.762;7.000;2023-10-31T04:40:00;88122.66;;;-143.16;76.50
14885;BME280;7534;50.762;7.000;2023-10-31T04:42:26;88092.38;;;-143.16;76.00
14885;BME280;7534;50.762;7.000;2023-10-31T04:44:52;88088.34;;;-143.16;75.71
14885;BME280;7534;50.762;7.000;2023-10-31T04:47:18;88102.47;;;-143.16;75.85
14885;BME280;7534;50.762;7.000;2023-10-31T04:49:44;88086.34;;;-143.16;74.76
14885;BME280;7534;50.762;7.000;2023-10-31T04:52:10;88084.31;;;-143.16;74.51
14885;BME280;7534;50.762;7.000;2023-10-31T04:54:37;88072.19;;;-143.16;74.71
14885;BME280;7534;50.762;7.000;2023-10-31T04:57:04;88047.97;;;-143.16;74.57
14885;BME280;7534;50.762;7.000;2023-10-31T04:59:30;88070.19;;;-143.16;75.14
14885;BME280;7534;50.762;7.000;2023-10-31T05:01:56;88072.19;;;-143.16;75.28
14885;BME280;7534;50.762;7.000;2023-10-31T05:04:22;88080.28;;;-143.16;75.17
14885;BME280;7534;50.762;7.000;2023-10-31T05:06:48;88086.34;;;-143.16;75.66
14885;BME280;7534;50.762;7.000;2023-10-31T05:09:14;88082.28;;;-143.16;75.75
14885;BME280;7534;50.762;7.000;2023-10-31T05:11:41;88090.38;;;-143.16;76.08
14885;BME280;7534;50.762;7.000;2023-10-31T05:14:08;88159.00;;;-143.16;76.08
14885;BME280;7534;50.762;7.000;2023-10-31T05:16:43;88120.66;;;-143.16;76.22
14885;BME280;7534;50.762;7.000;2023-10-31T05:19:10;88084.31;;;-143.16;76.41
14885;BME280;7534;50.762;7.000;2023-10-31T05:21:36;88154.97;;;-143.16;75.43
14885;BME280;7534;50.762;7.000;2023-10-31T05:24:02;88152.94;;;-143.16;74.87
14885;BME280;7534;50.762;7.000;2023-10-31T05:26:28;88128.72;;;-143.16;74.93
14885;BME280;7534;50.762;7.000;2023-10-31T05:28:56;88148.91;;;-143.16;75.26
14885;BME280;7534;50.762;7.000;2023-10-31T05:31:23;88169.09;;;-143.16;75.54
14885;BME280;7534;50.762;7.000;2023-10-31T05:33:50;88163.03;;;-143.16;75.86
14885;BME280;7534;50.762;7.000;2023-10-31T05:36:22;88229.66;;;-143.16;76.53
14885;BME280;7534;50.762;7.000;2023-10-31T05:38:49;88142.84;;;-143.16;76.58
14885;BME280;7534;50.762;7.000;2023-10-31T05:41:15;88150.94;;;-143.16;75.83
14885;BME280;7534;50.762;7.000;2023-10-31T05:43:42;88175.16;;;-143.16;75.99
14885;BME280;7534;50.762;7.000;2023-10-31T05:46:08;88136.78;;;-143.16;75.39
14885;BME280;7534;50.762;7.000;2023-10-31T05:48:44;88169.09;;;-143.16;75.30
14885;BME280;7534;50.762;7.000;2023-10-31T05:51:14;88134.78;;;-143.16;74.85
14885;BME280;7534;50.762;7.000;2023-10-31T05:53:41;88132.75;;;-143.16;75.46
14885;BME280;7534;50.762;7.000;2023-10-31T05:56:09;88150.94;;;-143.16;75.25
14885;BME280;7534;50.762;7.000;2023-10-31T05:58:36;88136.78;;;-143.16;75.26
14885;BME280;7534;50.762;7.000;2023-10-31T06:01:02;88118.63;;;-143.16;75.65
14885;BME280;7534;50.762;7.000;2023-10-31T06:03:29;88140.84;;;-143.16;75.54
14885;BME280;7534;50.762;7.000;2023-10-31T06:05:55;88116.63;;;-143.16;74.23
14885;BME280;7534;50.762;7.000;2023-10-31T06:08:21;88126.72;;;-143.16;74.06
14885;BME280;7534;50.762;7.000;2023-10-31T06:10:50;88120.66;;;-143.16;74.17
14885;BME280;7534;50.762;7.000;2023-10-31T06:13:16;88169.09;;;-143.16;73.33
14885;BME280;7534;50.762;7.000;2023-10-31T06:15:43;88112.56;;;-143.16;73.31
14885;BME280;7534;50.762;7.000;2023-10-31T06:18:09;88130.75;;;-143.16;73.85
14885;BME280;7534;50.762;7.000;2023-10-31T06:20:36;88110.56;;;-143.16;73.67
14885;BME280;7534;50.762;7.000;2023-10-31T06:23:02;88163.03;;;-143.16;73.23
14885;BME280;7534;50.762;7.000;2023-10-31T06:25:31;88124.69;;;-143.16;73.23
14885;BME280;7534;50.762;7.000;2023-10-31T06:27:58;88175.16;;;-143.16;73.67
14885;BME280;7534;50.762;7.000;2023-10-31T06:30:24;88096.44;;;-143.16;73.08
14885;BME280;7534;50.762;7.000;2023-10-31T06:32:54;88078.25;;;-143.16;73.60
14885;BME280;7534;50.762;7.000;2023-10-31T06:35:20;88161.03;;;-143.16;73.12
14885;BME280;7534;50.762;7.000;2023-10-31T06:37:46;88110.56;;;-143.16;73.59
14885;BME280;7534;50.762;7.000;2023-10-31T06:40:12;88120.66;;;-143.16;73.31
14885;BME280;7534;50.762;7.000;2023-10-31T06:42:38;88110.56;;;-143.16;72.84
14885;BME280;7534;50.762;7.000;2023-10-31T06:45:05;88120.66;;;-143.16;72.77
14885;BME280;7534;50.762;7.000;2023-10-31T06:47:37;88134.78;;;-143.16;72.63
14885;BME280;7534;50.762;7.000;2023-10-31T06:50:04;88102.47;;;-143.16;72.66
14885;BME280;7534;50.762;7.000;2023-10-31T06:52:30;88104.50;;;-143.16;72.98
14885;BME280;7534;50.762;7.000;2023-10-31T06:54:59;88173.13;;;-143.16;72.67
14885;BME280;7534;50.762;7.000;2023-10-31T06:57:25;88169.09;;;-143.16;72.13
14885;BME280;7534;50.762;7.000;2023-10-31T06:59:52;88159.00;;;-143.16;72.54
14885;BME280;7534;50.762;7.000;2023-10-31T07:02:18;88167.06;;;-143.16;72.25
14885;BME280;7534;50.762;7.000;2023-10-31T07:04:45;88104.50;;;-143.16;72.08
14885;BME280;7534;50.762;7.000;2023-10-31T07:07:31;88108.53;;;-143.16;72.13
14885;BME280;7534;50.762;7.000;2023-10-31T07:09:57;88120.66;;;-143.16;72.02
14885;BME280;7534;50.762;7.000;2023-10-31T07:12:23;88126.72;;;-143.16;72.08
14885;BME280;7534;50.762;7.000;2023-10-31T07:14:53;88112.56;;;-143.16;71.84
14885;BME280;7534;50.762;7.000;2023-10-31T07:17:22;88124.69;;;-143.16;71.67
14885;BME280;7534;50.762;7.000;2023-10-31T07:19:48;88102.47;;;-143.16;70.77
14885;BME280;7534;50.762;7.000;2023-10-31T07:22:14;88138.81;;;-143.16;70.93
14885;BME280;7534;50.762;7.000;2023-10-31T07:24:41;88052.00;;;-143.16;70.05
14885;BME280;7534;50.762;7.000;2023-10-31T07:27:13;87975.31;;;-143.16;68.25
14885;BME280;7534;50.762;7.000;2023-10-31T07:29:40;87941.00;;;-143.16;66.60
14885;BME280;7534;50.762;7.000;2023-10-31T07:32:09;87967.25;;;-143.16;66.00
14885;BME280;7534;50.762;7.000;2023-10-31T07:34:36;88064.13;;;-143.16;67.35
14885;BME280;7534;50.762;7.000;2023-10-31T07:37:02;87987.44;;;-143.16;68.97
14885;BME280;7534;50.762;7.000;2023-10-31T07:39:28;87866.31;;;-143.16;65.81
14885;BME280;7534;50.762;7.000;2023-10-31T07:41:54;87753.28;;;-143.16;62.21
14885;BME280;7534;50.762;7.000;2023-10-31T07:44:20;87720.97;;;-143.16;61.10
14885;BME280;7534;50.762;7.000;2023-10-31T07:46:46;87605.94;;;-143.16;56.32
14885;BME280;7534;50.762;7.000;2023-10-31T07:49:12;87464.66;;;-143.16;55.77
14885;BME280;7534;50.762;7.000;2023-10-31T07:51:38;87601.91;;;-143.16;54.65
14885;BME280;7534;50.762;7.000;2023-10-31T07:54:05;87628.13;;;-143.16;55.44
14885;BME280;7534;50.762;7.000;2023-10-31T07:56:31;87624.09;;;-143.16;55.01
14885;BME280;7534;50.762;7.000;2023-10-31T07:59:11;87616.03;;;-143.16;55.19
14885;BME280;7534;50.762;7.000;2023-10-31T08:01:37;87698.78;;;-143.16;56.85
14885;BME280;7534;50.762;7.000;2023-10-31T08:04:03;87632.19;;;-143.16;56.18
14885;BME280;7534;50.762;7.000;2023-10-31T08:06:32;87652.38;;;-143.16;56.33
14885;BME280;7534;50.762;7.000;2023-10-31T08:08:58;87553.47;;;-143.16;54.27
14885;BME280;7534;50.762;7.000;2023-10-31T08:11:25;87662.44;;;-143.16;55.97
14885;BME280;7534;50.762;7.000;2023-10-31T08:13:53;87650.34;;;-143.16;56.21
14885;BME280;7534;50.762;7.000;2023-10-31T08:16:19;87688.69;;;-143.16;56.42
14885;BME280;7534;50.762;7.000;2023-10-31T08:18:46;87561.53;;;-143.16;55.83
14885;BME280;7534;50.762;7.000;2023-10-31T08:21:16;87511.06;;;-143.16;53.78
14885;BME280;7534;50.762;7.000;2023-10-31T08:23:42;87523.19;;;-143.16;54.76
14885;BME280;7534;50.762;7.000;2023-10-31T08:26:15;87525.22;;;-143.16;53.37
14885;BME280;7534;50.762;7.000;2023-10-31T08:28:42;87450.53;;;-143.16;52.14
14885;BME280;7534;50.762;7.000;2023-10-31T08:31:08;87507.03;;;-143.16;52.37
14885;BME280;7534;50.762;7.000;2023-10-31T08:33:34;87636.22;;;-143.16;54.60
14885;BME280;7534;50.762;7.000;2023-10-31T08:36:00;87573.66;;;-143.16;56.08
14885;BME280;7534;50.762;7.000;2023-10-31T08:38:32;87408.16;;;-143.16;52.38
14885;BME280;7534;50.762;7.000;2023-10-31T08:40:58;87343.56;;;-143.16;51.77
14885;BME280;7534;50.762;7.000;2023-10-31T08:43:25;87484.84;;;-143.16;52.27
14885;BME280;7534;50.762;7.000;2023-10-31T08:45:51;87498.97;;;-143.16;53.30
14885;BME280;7534;50.762;7.000;2023-10-31T08:48:17;87616.03;;;-143.16;54.79
14885;BME280;7534;50.762;7.000;2023-10-31T08:50:43;87620.06;;;-143.16;55.43
14885;BME280;7534;50.762;7.000;2023-10-31T08:53:10;87525.22;;;-143.16;54.15
14885;BME280;7534;50.762;7.000;2023-10-31T08:55:36;87636.22;;;-143.16;55.60
14885;BME280;7534;50.762;7.000;2023-10-31T08:58:02;87684.66;;;-143.16;56.49
14885;BME280;7534;50.762;7.000;2023-10-31T09:00:28;87547.41;;;-143.16;56.38
14885;BME280;7534;50.762;7.000;2023-10-31T09:02:55;87620.06;;;-143.16;55.44
14885;BME280;7534;50.762;7.000;2023-10-31T09:05:21;87723.00;;;-143.16;56.59
14885;BME280;7534;50.762;7.000;2023-10-31T09:07:47;87694.75;;;-143.16;57.09
14885;BME280;7534;50.762;7.000;2023-10-31T09:10:13;87785.56;;;-143.16;57.83
14885;BME280;7534;50.762;7.000;2023-10-31T09:12:39;87725.03;;;-143.16;57.83
14885;BME280;7534;50.762;7.000;2023-10-31T09:15:06;87714.94;;;-143.16;57.65
14885;BME280;7534;50.762;7.000;2023-10-31T09:17:32;87718.97;;;-143.16;57.22
14885;BME280;7534;50.762;7.000;2023-10-31T09:19:59;87773.47;;;-143.16;57.62
14885;BME280;7534;50.762;7.000;2023-10-31T09:22:25;87676.59;;;-143.16;57.80
14885;BME280;7534;50.762;7.000;2023-10-31T09:24:52;87640.25;;;-143.16;56.44
14885;BME280;7534;50.762;7.000;2023-10-31T09:27:19;87632.19;;;-143.16;55.75
14885;BME280;7534;50.762;7.000;2023-10-31T09:29:45;87628.13;;;-143.16;56.05
14885;BME280;7534;50.762;7.000;2023-10-31T09:32:12;87704.84;;;-143.16;56.76
14885;BME280;7534;50.762;7.000;2023-10-31T09:34:38;87646.31;;;-143.16;56.58
14885;BME280;7534;50.762;7.000;2023-10-31T09:37:05;87563.56;;;-143.16;55.87
14885;BME280;7534;50.762;7.000;2023-10-31T09:39:31;87587.78;;;-143.16;54.38
14885;BME280;7534;50.762;7.000;2023-10-31T09:41:57;87609.97;;;-143.16;54.63
14885;BME280;7534;50.762;7.000;2023-10-31T09:44:23;87674.56;;;-143.16;54.74
14885;BME280;7534;50.762;7.000;2023-10-31T09:46:52;87531.25;;;-143.16;53.84
14885;BME280;7534;50.762;7.000;2023-10-31T09:49:20;87519.16;;;-143.16;52.91
14885;BME280;7534;50.762;7.000;2023-10-31T09:51:49;87434.38;;;-143.16;50.45
14885;BME280;7534;50.762;7.000;2023-10-31T09:54:19;87494.94;;;-143.16;51.54
14885;BME280;7534;50.762;7.000;2023-10-31T09:56:46;87498.97;;;-143.16;51.58
14885;BME280;7534;50.762;7.000;2023-10-31T09:59:14;87430.34;;;-143.16;51.39
14885;BME280;7534;50.762;7.000;2023-10-31T10:01:43;87434.38;;;-143.16;50.94
14885;BME280;7534;50.762;7.000;2023-10-31T10:04:09;87531.25;;;-143.16;51.75
14885;BME280;7534;50.762;7.000;2023-10-31T10:06:39;87511.06;;;-143.16;51.84
14885;BME280;7534;50.762;7.000;2023-10-31T10:09:06;87484.84;;;-143.16;50.82
14885;BME280;7534;50.762;7.000;2023-10-31T10:11:34;87498.97;;;-143.16;50.81
14885;BME280;7534;50.762;7.000;2023-10-31T10:14:01;87503.00;;;-143.16;50.43
14885;BME280;7534;50.762;7.000;2023-10-31T10:16:32;87616.03;;;-143.16;51.74
14885;BME280;7534;50.762;7.000;2023-10-31T10:19:15;87618.06;;;-143.16;52.21
14885;BME280;7534;50.762;7.000;2023-10-31T10:21:48;87636.22;;;-143.16;53.14
14885;BME280;7534;50.762;7.000;2023-10-31T10:24:16;87682.63;;;-143.16;54.12
14885;BME280;7534;50.762;7.000;2023-10-31T10:26:43;87676.59;;;-143.16;53.47
14885;BME280;7534;50.762;7.000;2023-10-31T10:29:09;87666.50;;;-143.16;53.44
14885;BME280;7534;50.762;7.000;2023-10-31T10:31:35;87616.03;;;-143.16;53.81
14885;BME280;7534;50.762;7.000;2023-10-31T10:34:01;87585.75;;;-143.16;51.93
14885;BME280;7534;50.762;7.000;2023-10-31T10:36:28;87630.16;;;-143.16;51.60
14885;BME280;7534;50.762;7.000;2023-10-31T10:39:01;87624.09;;;-143.16;51.72
14885;BME280;7534;50.762;7.000;2023-10-31T10:41:29;87658.41;;;-143.16;52.22
14885;BME280;7534;50.762;7.000;2023-10-31T10:44:03;87549.44;;;-143.16;50.96
14885;BME280;7534;50.762;7.000;2023-10-31T10:46:34;87519.16;;;-143.16;50.11
14885;BME280;7534;50.762;7.000;2023-10-31T10:49:05;87509.06;;;-143.16;50.51
14885;BME280;7534;50.762;7.000;2023-10-31T10:51:58;87567.59;;;-143.16;51.46
14885;BME280;7534;50.762;7.000;2023-10-31T10:54:52;87603.91;;;-143.16;52.12
14885;BME280;7534;50.762;7.000;2023-10-31T10:57:51;87660.44;;;-143.16;52.03
14885;BME280;7534;50.762;7.000;2023-10-31T11:00:24;87585.75;;;-143.16;51.52
14885;BME280;7534;50.762;7.000;2023-10-31T11:02:55;87496.94;;;-143.16;52.11
14885;BME280;7534;50.762;7.000;2023-10-31T11:05:24;87589.78;;;-143.16;52.83
14885;BME280;7534;50.762;7.000;2023-10-31T11:07:51;87575.66;;;-143.16;52.32
14885;BME280;7534;50.762;7.000;2023-10-31T11:10:18;87466.69;;;-143.16;50.77
14885;BME280;7534;50.762;7.000;2023-10-31T11:12:45;87442.47;;;-143.16;50.07
14885;BME280;7534;50.762;7.000;2023-10-31T11:15:14;87438.41;;;-143.16;50.29
14885;BME280;7534;50.762;7.000;2023-10-31T11:17:49;87410.16;;;-143.16;49.97
14885;BME280;7534;50.762;7.000;2023-10-31T11:20:17;87365.75;;;-143.16;49.49
14885;BME280;7534;50.762;7.000;2023-10-31T12:16:48;86540.44;;;-143.16;54.79
14885;BME280;7534;50.762;7.000;2023-10-31T12:19:14;86385.06;;;-143.16;55.72
14885;BME280;7534;50.762;7.000;2023-10-31T12:21:45;86944.00;;;-143.16;56.51
14885;BME280;7534;50.762;7.000;2023-10-31T12:24:15;86578.75;;;-143.16;57.36
14885;BME280;7534;50.762;7.000;2023-10-31T12:26:42;86477.88;;;-143.16;56.80
14885;BME280;7534;50.762;7.000;2023-10-31T12:31:53;86623.16;;;-143.16;56.97
14885;BME280;7534;50.762;7.000;2023-10-31T12:34:23;87301.19;;;-143.16;57.23
